Time;durP1;ratioP1;P1;durP2;ratioP2;P2;SDS_P1;SDS_P2;PMS_P1;PMS_P2;Temp;Humidity;BMP_temperature;BMP_pressure;BME280_temperature;BME280_humidity;BME280_pressure;Samples;Min_cycle;Max_cycle;Signal;HPM_P1;HPM_P2
2021/06/20 00:01:33;;;;;;;1.20;1.20;;;;;;;17.43;100.00;96950.81;5075463;28;20197;-83
2021/06/20 00:04:01;;;;;;;1.50;1.40;;;;;;;17.39;100.00;96953.03;5074990;28;20221;-85
2021/06/20 00:06:33;;;;;;;1.20;1.20;;;;;;;17.46;100.00;96961.06;5075449;28;20204;-85
2021/06/20 00:09:02;;;;;;;1.30;1.20;;;;;;;17.43;100.00;96956.13;5075237;28;20713;-84
2021/06/20 00:11:29;;;;;;;1.03;1.03;;;;;;;17.41;100.00;96942.19;5075087;28;20275;-85
2021/06/20 00:13:57;;;;;;;3.13;1.50;;;;;;;17.39;100.00;96938.88;5075062;28;20231;-85
2021/06/20 00:16:25;;;;;;;1.60;1.50;;;;;;;17.35;100.00;96938.44;5075185;28;20295;-85
2021/06/20 00:18:53;;;;;;;1.10;1.10;;;;;;;17.42;100.00;96933.19;5075118;28;20594;-85
2021/06/20 00:21:22;;;;;;;1.77;1.53;;;;;;;17.38;100.00;96931.94;5075401;28;20582;-84
2021/06/20 00:23:50;;;;;;;2.17;1.50;;;;;;;17.30;100.00;96938.16;5074823;28;20286;-85
2021/06/20 00:26:18;;;;;;;2.13;1.40;;;;;;;17.02;100.00;96938.00;5074990;28;20621;-85
2021/06/20 00:28:46;;;;;;;3.80;1.30;;;;;;;16.88;100.00;96939.63;5074524;28;20189;-84
2021/06/20 00:31:14;;;;;;;1.03;1.03;;;;;;;16.90;100.00;96944.75;5074945;28;20193;-85
2021/06/20 00:33:42;;;;;;;1.23;1.23;;;;;;;16.86;100.00;96934.47;5074714;28;20606;-84
2021/06/20 00:36:09;;;;;;;1.50;1.17;;;;;;;16.84;100.00;96927.72;5074816;28;20196;-85
2021/06/20 00:38:39;;;;;;;1.47;1.27;;;;;;;17.02;100.00;96922.88;5074335;28;20672;-84
2021/06/20 00:41:06;;;;;;;6.23;2.90;;;;;;;16.96;100.00;96907.66;5074819;28;20193;-84
2021/06/20 00:43:34;;;;;;;2.63;1.40;;;;;;;16.96;100.00;96893.56;5074388;28;20277;-85
2021/06/20 00:46:05;;;;;;;1.47;1.37;;;;;;;17.00;100.00;96881.56;5074431;28;20197;-85
2021/06/20 00:48:32;;;;;;;1.30;1.23;;;;;;;16.95;100.00;96876.00;5074003;28;20716;-84
2021/06/20 00:51:00;;;;;;;1.33;1.23;;;;;;;16.99;100.00;96872.78;5074560;28;20243;-84
2021/06/20 00:53:27;;;;;;;2.80;1.30;;;;;;;16.83;100.00;96863.19;5074332;28;20197;-84
2021/06/20 00:55:59;;;;;;;3.27;1.40;;;;;;;16.88;100.00;96858.16;5074407;28;20209;-84
2021/06/20 00:58:27;;;;;;;1.33;1.23;;;;;;;16.88;100.00;96852.03;5074214;28;20185;-84
2021/06/20 01:00:54;;;;;;;1.50;1.40;;;;;;;16.77;100.00;96849.84;5074390;28;20680;-84
2021/06/20 01:03:22;;;;;;;3.03;1.80;;;;;;;16.84;100.00;96846.25;5074380;28;20263;-84
2021/06/20 01:05:49;;;;;;;1.70;1.60;;;;;;;16.81;100.00;96830.69;5074513;28;20709;-84
2021/06/20 01:08:17;;;;;;;4.80;1.60;;;;;;;16.87;100.00;96839.75;5074012;28;20225;-84
2021/06/20 01:10:44;;;;;;;2.37;1.73;;;;;;;16.97;100.00;96828.84;5074178;28;20287;-85
2021/06/20 01:13:16;;;;;;;2.37;1.20;;;;;;;16.98;100.00;96819.88;5074144;28;20238;-84
2021/06/20 01:15:46;;;;;;;1.90;1.40;;;;;;;16.93;100.00;96815.09;5074112;28;20181;-84
2021/06/20 01:18:14;;;;;;;1.50;1.43;;;;;;;17.05;100.00;96821.59;5073914;28;20232;-85
2021/06/20 01:20:42;;;;;;;2.97;1.77;;;;;;;17.03;100.00;96807.69;5074233;28;20627;-85
2021/06/20 01:23:11;;;;;;;1.70;1.60;;;;;;;16.98;100.00;96807.41;5073877;28;20788;-85
2021/06/20 01:25:42;;;;;;;1.47;1.37;;;;;;;17.00;100.00;96812.53;5073764;28;20236;-85
2021/06/20 01:28:10;;;;;;;2.00;1.40;;;;;;;17.01;100.00;96808.88;5073964;28;20216;-85
2021/06/20 01:30:39;;;;;;;1.57;1.47;;;;;;;16.98;100.00;96804.78;5074068;28;20205;-85
2021/06/20 01:33:09;;;;;;;1.50;1.40;;;;;;;17.07;100.00;96802.81;5073895;28;20197;-85
2021/06/20 01:35:37;;;;;;;1.60;1.50;;;;;;;16.99;100.00;96805.59;5073874;28;20200;-85
2021/06/20 01:38:06;;;;;;;1.70;1.60;;;;;;;16.99;100.00;96810.91;5073675;28;20250;-85
2021/06/20 01:40:35;;;;;;;2.03;1.63;;;;;;;16.85;100.00;96818.69;5073612;28;20200;-85
2021/06/20 01:43:03;;;;;;;1.70;1.60;;;;;;;16.86;100.00;96820.31;5073837;28;20286;-85
2021/06/20 01:45:31;;;;;;;3.87;1.40;;;;;;;16.98;100.00;96828.66;5073245;28;20295;-85
2021/06/20 01:48:00;;;;;;;1.83;1.43;;;;;;;16.72;100.00;96823.78;5073260;28;20235;-84
2021/06/20 01:50:28;;;;;;;1.87;1.70;;;;;;;16.65;100.00;96820.22;5073354;28;20224;-84
2021/06/20 01:53:07;;;;;;;4.20;1.60;;;;;;;16.47;100.00;96798.53;5073688;28;20236;-84
2021/06/20 01:55:37;;;;;;;2.50;1.83;;;;;;;16.38;100.00;96790.69;5073464;28;20284;-84
2021/06/20 01:58:06;;;;;;;1.53;1.43;;;;;;;16.31;100.00;96763.19;5072565;28;20211;-84
2021/06/20 02:00:34;;;;;;;1.60;1.50;;;;;;;16.27;100.00;96748.66;5072900;28;20201;-84
2021/06/20 02:03:07;;;;;;;1.70;1.33;;;;;;;16.32;100.00;96734.88;5073371;28;20296;-85
2021/06/20 02:05:35;;;;;;;1.80;1.70;;;;;;;16.26;100.00;96733.75;5073034;28;20191;-85
2021/06/20 02:08:02;;;;;;;1.60;1.50;;;;;;;16.35;100.00;96716.75;5073057;28;20229;-85
2021/06/20 02:10:30;;;;;;;1.57;1.47;;;;;;;16.31;100.00;96710.16;5072637;28;20189;-84
2021/06/20 02:12:59;;;;;;;2.10;1.87;;;;;;;16.26;100.00;96704.59;5072923;28;20289;-84
2021/06/20 02:15:26;;;;;;;2.43;1.33;;;;;;;16.43;100.00;96689.31;5072736;28;20199;-85
2021/06/20 02:17:54;;;;;;;1.67;1.57;;;;;;;16.35;100.00;96687.59;5072891;28;20776;-85
2021/06/20 02:20:21;;;;;;;1.97;1.80;;;;;;;16.50;100.00;96686.75;5072733;28;20196;-84
2021/06/20 02:22:52;;;;;;;1.53;1.43;;;;;;;16.65;100.00;96691.00;5072830;28;20200;-84
2021/06/20 02:25:21;;;;;;;2.27;1.47;;;;;;;16.36;100.00;96689.22;5072492;28;20224;-85
2021/06/20 02:27:51;;;;;;;1.40;1.30;;;;;;;16.30;100.00;96683.81;5072427;28;20208;-85
2021/06/20 02:30:22;;;;;;;1.30;1.30;;;;;;;16.23;100.00;96697.00;5072456;28;20215;-85
2021/06/20 02:32:51;;;;;;;1.30;1.20;;;;;;;16.23;100.00;96696.19;5072626;28;20188;-85
2021/06/20 02:35:18;;;;;;;1.23;1.20;;;;;;;16.31;100.00;96699.53;5072480;28;20254;-85
2021/06/20 02:37:48;;;;;;;1.10;1.10;;;;;;;16.28;100.00;96707.91;5072188;28;20239;-85
2021/06/20 02:40:17;;;;;;;1.23;1.23;;;;;;;16.40;100.00;96710.91;5072645;28;20239;-85
2021/06/20 02:42:45;;;;;;;2.07;1.73;;;;;;;16.34;100.00;96708.97;5072762;28;20232;-85
2021/06/20 02:45:14;;;;;;;1.90;1.50;;;;;;;16.27;100.00;96722.13;5072181;28;20318;-84
2021/06/20 02:47:42;;;;;;;2.90;1.90;;;;;;;16.29;100.00;96706.88;5071946;28;20270;-85
2021/06/20 02:50:11;;;;;;;3.17;1.87;;;;;;;16.29;100.00;96703.41;5072192;28;20707;-85
2021/06/20 02:52:39;;;;;;;4.70;1.87;;;;;;;16.30;100.00;96689.94;5072281;28;20639;-85
2021/06/20 02:55:07;;;;;;;2.13;1.60;;;;;;;16.46;100.00;96693.44;5072087;28;20212;-85
2021/06/20 02:57:35;;;;;;;1.73;1.60;;;;;;;16.41;100.00;96683.34;5071936;28;20208;-84
2021/06/20 03:00:04;;;;;;;2.77;1.60;;;;;;;16.36;100.00;96681.25;5072055;28;20279;-84
2021/06/20 03:02:31;;;;;;;2.23;1.77;;;;;;;16.31;100.00;96678.31;5072522;28;20636;-84
2021/06/20 03:05:01;;;;;;;2.73;1.40;;;;;;;16.36;100.00;96686.56;5071995;28;20330;-84
2021/06/20 03:07:29;;;;;;;1.50;1.40;;;;;;;16.32;100.00;96687.94;5072150;28;20204;-85
2021/06/20 03:09:56;;;;;;;2.80;1.90;;;;;;;16.37;100.00;96690.84;5072173;28;20214;-85
2021/06/20 03:12:24;;;;;;;2.00;1.67;;;;;;;16.28;100.00;96691.97;5072466;28;20549;-85
2021/06/20 03:14:51;;;;;;;1.80;1.70;;;;;;;16.38;100.00;96695.19;5071645;28;20196;-85
2021/06/20 03:17:20;;;;;;;1.63;1.53;;;;;;;16.55;100.00;96695.78;5072331;28;20581;-85
2021/06/20 03:19:48;;;;;;;3.73;1.60;;;;;;;16.48;100.00;96699.34;5071771;28;20577;-85
2021/06/20 03:22:17;;;;;;;1.70;1.60;;;;;;;16.41;100.00;96707.22;5071938;28;20204;-85
2021/06/20 03:24:48;;;;;;;2.17;2.07;;;;;;;16.43;100.00;96712.38;5071726;28;20248;-85
2021/06/20 03:27:16;;;;;;;1.57;1.47;;;;;;;16.41;100.00;96717.84;5071932;28;20195;-85
2021/06/20 03:29:45;;;;;;;4.30;1.87;;;;;;;16.46;100.00;96722.59;5071786;28;20254;-85
2021/06/20 03:32:13;;;;;;;2.00;1.60;;;;;;;16.54;100.00;96725.16;5071813;28;20199;-85
2021/06/20 03:34:41;;;;;;;2.03;1.50;;;;;;;16.56;100.00;96725.81;5071850;28;20641;-85
2021/06/20 03:37:08;;;;;;;3.60;1.90;;;;;;;16.62;100.00;96735.66;5071704;28;20189;-85
2021/06/20 03:39:37;;;;;;;1.67;1.57;;;;;;;16.59;100.00;96744.84;5071692;28;20193;-85
2021/06/20 03:42:05;;;;;;;2.30;1.60;;;;;;;16.67;100.00;96735.94;5071937;28;20235;-85
2021/06/20 03:44:32;;;;;;;2.80;1.50;;;;;;;16.70;100.00;96737.41;5071789;28;20220;-85
2021/06/20 03:47:00;;;;;;;2.00;1.80;;;;;;;16.76;100.00;96726.88;5071465;28;20218;-85
2021/06/20 03:49:27;;;;;;;1.50;1.40;;;;;;;16.81;100.00;96737.78;5071535;28;20244;-85
2021/06/20 03:51:55;;;;;;;2.43;1.80;;;;;;;16.66;100.00;96726.34;5071984;28;20197;-85
2021/06/20 03:54:24;;;;;;;1.80;1.70;;;;;;;16.51;100.00;96734.28;5071205;28;20246;-85
2021/06/20 03:56:54;;;;;;;1.63;1.53;;;;;;;16.58;100.00;96737.84;5071670;28;20586;-85
2021/06/20 03:59:21;;;;;;;1.83;1.43;;;;;;;16.75;100.00;96725.25;5071402;28;20726;-85
2021/06/20 04:01:49;;;;;;;2.03;1.83;;;;;;;16.80;100.00;96722.88;5071689;28;20695;-85
2021/06/20 04:04:16;;;;;;;2.33;1.23;;;;;;;16.87;100.00;96715.81;5071417;28;20228;-85
2021/06/20 04:06:44;;;;;;;1.80;1.70;;;;;;;16.94;100.00;96707.91;5071494;28;20616;-85
2021/06/20 04:09:11;;;;;;;1.43;1.33;;;;;;;16.97;100.00;96704.03;5071703;28;20200;-85
2021/06/20 04:11:39;;;;;;;1.67;1.57;;;;;;;17.01;100.00;96710.63;5071533;28;20236;-85
2021/06/20 04:14:08;;;;;;;2.30;1.37;;;;;;;17.09;100.00;96710.50;5071392;28;20219;-84
2021/06/20 04:16:35;;;;;;;3.53;1.50;;;;;;;17.15;100.00;96711.59;5071404;28;20201;-85
2021/06/20 04:19:02;;;;;;;1.50;1.40;;;;;;;17.17;100.00;96720.19;5071203;28;20236;-84
2021/06/20 04:21:30;;;;;;;2.60;1.23;;;;;;;17.19;100.00;96736.78;5074195;28;20228;-85
2021/06/20 04:23:57;;;;;;;1.70;1.60;;;;;;;17.17;100.00;96744.91;5074851;28;20260;-84
2021/06/20 04:26:24;;;;;;;1.40;1.30;;;;;;;17.17;100.00;96755.53;5075021;28;20284;-85
2021/06/20 04:28:52;;;;;;;1.10;1.10;;;;;;;17.19;100.00;96764.16;5074817;28;20227;-85
2021/06/20 04:31:21;;;;;;;1.70;1.60;;;;;;;17.22;100.00;96762.97;5074950;28;20200;-85
2021/06/20 04:33:48;;;;;;;1.70;1.60;;;;;;;17.19;100.00;96779.28;5074790;28;20193;-84
2021/06/20 04:36:16;;;;;;;1.50;1.40;;;;;;;17.25;100.00;96787.31;5074980;28;20290;-84
2021/06/20 04:38:44;;;;;;;1.37;1.27;;;;;;;17.25;100.00;96792.63;5074612;28;20578;-85
2021/06/20 04:41:12;;;;;;;6.17;1.60;;;;;;;17.24;100.00;96793.63;5074846;28;20242;-85
2021/06/20 04:43:57;;;;;;;1.27;1.27;;;;;;;17.25;100.00;96795.28;5074418;28;20201;-85
2021/06/20 04:46:31;;;;;;;1.20;1.20;;;;;;;17.38;100.00;96789.25;5075019;28;20572;-85
2021/06/20 04:49:00;;;;;;;1.60;1.50;;;;;;;17.51;100.00;96791.25;5074277;28;20236;-85
2021/06/20 04:51:29;;;;;;;2.00;1.90;;;;;;;17.48;100.00;96786.31;5074652;28;20237;-85
2021/06/20 04:53:57;;;;;;;1.67;1.57;;;;;;;17.52;100.00;96795.53;5074248;28;20215;-85
2021/06/20 04:56:24;;;;;;;1.57;1.47;;;;;;;17.47;100.00;96806.75;5074889;28;20197;-85
2021/06/20 04:58:52;;;;;;;5.13;2.17;;;;;;;17.52;100.00;96820.28;5074318;28;20208;-85
2021/06/20 05:01:19;;;;;;;1.90;1.80;;;;;;;17.46;100.00;96825.56;5074412;28;20288;-85
2021/06/20 05:03:49;;;;;;;2.33;2.10;;;;;;;17.47;100.00;96841.28;5073993;28;20197;-85
2021/06/20 05:06:16;;;;;;;1.47;1.40;;;;;;;17.54;100.00;96858.13;5074456;28;20204;-85
2021/06/20 05:08:44;;;;;;;2.00;1.63;;;;;;;17.56;100.00;96871.22;5074171;28;20255;-85
2021/06/20 05:11:12;;;;;;;1.90;1.80;;;;;;;17.60;100.00;96872.53;5074499;28;20254;-85
2021/06/20 05:13:39;;;;;;;1.50;1.40;;;;;;;17.66;100.00;96884.22;5073903;28;20765;-85
2021/06/20 05:16:07;;;;;;;1.77;1.67;;;;;;;17.74;100.00;96884.94;5074526;28;20339;-86
2021/06/20 05:18:35;;;;;;;1.70;1.60;;;;;;;17.73;100.00;96893.91;5073921;28;20291;-85
2021/06/20 05:21:04;;;;;;;1.63;1.53;;;;;;;17.75;100.00;96902.53;5074170;28;20197;-85
2021/06/20 05:23:32;;;;;;;1.63;1.53;;;;;;;17.93;100.00;96909.28;5074198;28;20257;-85
2021/06/20 05:25:59;;;;;;;1.50;1.40;;;;;;;17.88;100.00;96904.53;5073966;28;20225;-85
2021/06/20 05:28:27;;;;;;;1.83;1.73;;;;;;;17.87;100.00;96910.84;5073926;28;20662;-85
2021/06/20 05:30:54;;;;;;;1.50;1.40;;;;;;;17.90;100.00;96909.66;5074234;28;20628;-85
2021/06/20 05:33:22;;;;;;;1.70;1.60;;;;;;;17.92;100.00;96911.13;5073034;28;20733;-85
2021/06/20 05:35:49;;;;;;;1.70;1.60;;;;;;;17.86;100.00;96922.50;5073807;28;20201;-85
2021/06/20 05:38:18;;;;;;;6.67;2.20;;;;;;;17.94;100.00;96935.72;5073381;28;20254;-86
2021/06/20 05:40:46;;;;;;;1.90;1.80;;;;;;;17.93;100.00;96926.06;5074020;28;20631;-86
2021/06/20 05:43:13;;;;;;;2.77;1.90;;;;;;;18.00;100.00;96944.75;5073901;28;20640;-85
2021/06/20 05:45:41;;;;;;;2.23;1.80;;;;;;;18.16;100.00;96938.38;5073199;28;20221;-85
2021/06/20 05:48:08;;;;;;;1.67;1.57;;;;;;;17.95;100.00;96933.88;5073461;28;20278;-86
2021/06/20 05:50:36;;;;;;;2.00;1.90;;;;;;;17.99;100.00;96940.44;5073484;28;20197;-85
2021/06/20 05:53:04;;;;;;;2.10;1.80;;;;;;;18.19;100.00;96945.97;5073387;28;20197;-86
2021/06/20 05:55:33;;;;;;;1.70;1.60;;;;;;;18.35;100.00;96939.56;5073186;28;20670;-86
2021/06/20 05:58:00;;;;;;;1.80;1.70;;;;;;;18.42;100.00;96917.31;5073334;28;20291;-85
2021/06/20 06:00:27;;;;;;;2.00;1.80;;;;;;;18.58;100.00;96908.22;5073172;28;20261;-85
2021/06/20 06:02:57;;;;;;;1.37;1.27;;;;;;;18.61;100.00;96899.88;5073355;28;20240;-85
2021/06/20 06:05:25;;;;;;;2.57;1.73;;;;;;;18.64;100.00;96911.97;5072716;28;20721;-86
2021/06/20 06:07:52;;;;;;;1.80;1.70;;;;;;;18.58;100.00;96904.75;5073179;28;20201;-85
2021/06/20 06:10:19;;;;;;;1.70;1.60;;;;;;;18.71;100.00;96915.50;5072868;28;20205;-85
2021/06/20 06:12:50;;;;;;;2.27;1.80;;;;;;;18.71;100.00;96911.03;5072890;28;20741;-85
2021/06/20 06:15:18;;;;;;;2.53;1.80;;;;;;;18.77;100.00;96915.59;5073183;28;20186;-86
2021/06/20 06:17:46;;;;;;;1.83;1.73;;;;;;;18.82;100.00;96936.31;5073354;28;20618;-86
2021/06/20 06:20:14;;;;;;;1.93;1.83;;;;;;;18.65;100.00;96951.69;5073009;28;20542;-85
2021/06/20 06:22:42;;;;;;;2.47;2.27;;;;;;;18.75;100.00;96967.38;5073183;28;20284;-85
2021/06/20 06:25:11;;;;;;;2.00;1.90;;;;;;;18.81;100.00;96969.28;5072828;28;20705;-85
2021/06/20 06:27:39;;;;;;;2.03;1.90;;;;;;;18.74;100.00;96971.88;5073135;28;20621;-85
2021/06/20 06:30:10;;;;;;;2.00;1.90;;;;;;;18.70;100.00;96964.44;5072326;28;20201;-85
2021/06/20 06:32:38;;;;;;;2.30;2.17;;;;;;;18.79;100.00;96968.63;5072751;28;20288;-85
2021/06/20 06:35:07;;;;;;;2.60;2.40;;;;;;;18.88;100.00;96977.31;5072637;28;20696;-85
2021/06/20 06:37:34;;;;;;;2.03;1.93;;;;;;;18.97;100.00;96976.97;5072828;28;20215;-85
2021/06/20 06:40:02;;;;;;;4.07;2.23;;;;;;;18.92;100.00;96975.91;5072169;28;20223;-85
2021/06/20 06:42:29;;;;;;;1.67;1.57;;;;;;;18.97;100.00;96992.13;5072419;28;20201;-85
2021/06/20 06:44:57;;;;;;;1.70;1.60;;;;;;;19.06;100.00;96988.31;5072404;28;20220;-85
2021/06/20 06:47:26;;;;;;;2.70;2.50;;;;;;;19.04;100.00;96985.00;5072399;28;20237;-85
2021/06/20 06:49:54;;;;;;;2.50;2.30;;;;;;;18.96;100.00;96985.16;5072350;28;20208;-85
2021/06/20 06:52:21;;;;;;;2.57;2.37;;;;;;;19.02;100.00;96971.06;5072335;28;20627;-85
2021/06/20 06:54:51;;;;;;;2.20;2.00;;;;;;;19.05;100.00;96964.50;5072446;28;20201;-85
2021/06/20 06:57:19;;;;;;;3.50;1.80;;;;;;;19.09;100.00;96971.94;5072405;28;20669;-85
2021/06/20 06:59:47;;;;;;;2.10;1.90;;;;;;;19.04;100.00;96982.34;5072644;28;20250;-85
2021/06/20 07:02:14;;;;;;;1.90;1.80;;;;;;;18.97;100.00;96989.47;5072002;28;20677;-85
2021/06/20 07:04:43;;;;;;;2.17;2.07;;;;;;;18.88;100.00;96986.13;5072350;28;20204;-85
2021/06/20 07:07:12;;;;;;;1.87;1.57;;;;;;;18.98;100.00;96985.78;5072378;28;20245;-85
2021/06/20 07:09:39;;;;;;;2.57;2.37;;;;;;;19.01;100.00;96988.88;5072116;28;20193;-85
2021/06/20 07:12:07;;;;;;;2.20;2.10;;;;;;;19.00;100.00;96978.41;5072127;28;20292;-85
2021/06/20 07:14:36;;;;;;;1.90;1.80;;;;;;;18.95;100.00;96986.19;5072117;28;20232;-85
2021/06/20 07:17:05;;;;;;;2.77;1.80;;;;;;;19.05;100.00;96984.00;5072268;28;20197;-85
2021/06/20 07:19:32;;;;;;;2.13;1.93;;;;;;;19.12;100.00;96984.03;5072170;28;20220;-85
2021/06/20 07:22:02;;;;;;;3.93;2.33;;;;;;;19.18;100.00;96975.25;5071971;28;20197;-85
2021/06/20 07:24:29;;;;;;;2.40;2.20;;;;;;;19.10;100.00;96962.91;5071741;28;20197;-85
2021/06/20 07:26:56;;;;;;;2.63;2.43;;;;;;;19.26;100.00;96967.13;5072339;28;20576;-87
2021/06/20 07:29:24;;;;;;;2.30;2.20;;;;;;;19.40;100.00;96981.34;5071837;28;20390;-85
2021/06/20 07:31:51;;;;;;;2.73;2.50;;;;;;;19.42;100.00;96969.44;5071781;28;20193;-85
2021/06/20 07:34:18;;;;;;;2.10;1.90;;;;;;;19.40;100.00;96944.84;5071710;28;20204;-85
2021/06/20 07:36:46;;;;;;;1.80;1.70;;;;;;;19.37;100.00;96945.25;5071948;28;20188;-85
2021/06/20 07:39:16;;;;;;;2.00;1.90;;;;;;;19.40;100.00;96936.03;5071727;28;20200;-85
2021/06/20 07:41:43;;;;;;;2.40;2.20;;;;;;;19.41;100.00;96938.50;5071624;28;20189;-85
2021/06/20 07:44:11;;;;;;;2.03;1.93;;;;;;;19.52;100.00;96913.09;5072020;28;20630;-85
2021/06/20 07:46:38;;;;;;;2.33;2.23;;;;;;;19.52;100.00;96909.63;5072169;28;20627;-85
2021/06/20 07:49:05;;;;;;;2.60;2.40;;;;;;;19.54;100.00;96927.06;5071661;28;20778;-85
2021/06/20 07:51:33;;;;;;;2.47;2.27;;;;;;;19.60;100.00;96949.44;5072039;28;20259;-85
2021/06/20 07:54:00;;;;;;;2.00;1.90;;;;;;;19.71;100.00;96941.75;5071788;28;20639;-85
2021/06/20 07:56:29;;;;;;;2.10;2.00;;;;;;;19.77;100.00;96902.75;5075560;28;20189;-85
2021/06/20 07:58:57;;;;;;;2.10;2.00;;;;;;;19.78;100.00;96928.44;5076010;28;20576;-85
2021/06/20 08:01:24;;;;;;;1.60;1.50;;;;;;;19.81;100.00;96912.03;5075540;28;20197;-85
2021/06/20 08:03:52;;;;;;;1.90;1.80;;;;;;;19.90;100.00;96891.31;5075360;28;20247;-85
2021/06/20 08:06:19;;;;;;;2.47;1.73;;;;;;;19.98;100.00;96853.75;5075928;28;20220;-86
2021/06/20 08:08:48;;;;;;;2.40;2.10;;;;;;;20.04;100.00;96823.59;5075219;28;20330;-85
2021/06/20 08:11:16;;;;;;;1.90;1.80;;;;;;;20.06;100.00;96844.75;5075469;28;20193;-85
2021/06/20 08:13:45;;;;;;;2.30;2.10;;;;;;;20.12;100.00;96858.06;5075466;28;20244;-85
2021/06/20 08:16:12;;;;;;;2.33;2.23;;;;;;;20.27;100.00;96844.56;5075488;28;20201;-85
2021/06/20 08:18:39;;;;;;;2.00;1.90;;;;;;;20.29;100.00;96837.13;5075217;28;20624;-85
2021/06/20 08:21:06;;;;;;;5.20;2.30;;;;;;;20.39;100.00;96820.72;5075240;28;20205;-85
2021/06/20 08:23:34;;;;;;;1.97;1.87;;;;;;;20.51;100.00;96815.63;5075446;28;20266;-85
2021/06/20 08:26:01;;;;;;;1.83;1.73;;;;;;;20.61;100.00;96822.16;5075104;28;20225;-85
2021/06/20 08:28:28;;;;;;;1.80;1.70;;;;;;;20.47;100.00;96815.19;5075126;28;20635;-85
2021/06/20 08:30:57;;;;;;;1.87;1.77;;;;;;;20.43;100.00;96806.72;5074886;28;20383;-86
2021/06/20 08:33:24;;;;;;;2.00;1.90;;;;;;;20.50;100.00;96800.56;5075346;28;20205;-86
2021/06/20 08:35:52;;;;;;;2.43;2.17;;;;;;;20.55;100.00;96793.63;5075359;28;20189;-86
2021/06/20 08:38:19;;;;;;;4.33;1.90;;;;;;;20.63;100.00;96790.72;5074933;28;20712;-86
2021/06/20 08:40:47;;;;;;;1.77;1.67;;;;;;;20.47;100.00;96784.97;5074587;28;20201;-86
2021/06/20 08:43:14;;;;;;;2.00;1.90;;;;;;;20.57;100.00;96812.09;5074879;28;20208;-86
2021/06/20 08:45:42;;;;;;;2.43;2.23;;;;;;;20.84;100.00;96813.66;5074725;28;20221;-86
2021/06/20 08:48:13;;;;;;;2.37;2.27;;;;;;;21.10;100.00;96841.34;5074254;28;20243;-86
2021/06/20 08:50:41;;;;;;;2.07;1.97;;;;;;;21.23;100.00;96825.25;5074652;28;20201;-86
2021/06/20 08:53:08;;;;;;;2.53;2.33;;;;;;;21.30;100.00;96799.31;5074990;28;20246;-86
2021/06/20 08:55:36;;;;;;;2.40;2.20;;;;;;;21.26;100.00;96760.66;5074643;28;20648;-86
2021/06/20 08:58:18;;;;;;;3.00;1.97;;;;;;;21.39;100.00;96740.28;5074432;28;20662;-86
2021/06/20 09:00:46;;;;;;;2.20;2.10;;;;;;;21.41;100.00;96724.84;5074872;28;20572;-86
2021/06/20 09:03:15;;;;;;;2.17;2.07;;;;;;;21.72;100.00;96748.09;5074770;28;20201;-86
2021/06/20 09:05:56;;;;;;;2.53;2.20;;;;;;;21.97;100.00;96732.84;5073925;28;20782;-86
2021/06/20 09:08:26;;;;;;;2.50;2.30;;;;;;;22.14;100.00;96684.94;5074279;28;20185;-86
2021/06/20 09:10:53;;;;;;;2.00;1.90;;;;;;;22.61;100.00;96687.94;5074620;28;20212;-86
2021/06/20 09:13:21;;;;;;;2.03;1.93;;;;;;;22.61;100.00;96644.25;5074184;28;20233;-86
2021/06/20 09:16:00;;;;;;;2.17;2.07;;;;;;;22.36;100.00;96629.09;5074094;28;20660;-86
2021/06/20 09:18:29;;;;;;;3.30;1.93;;;;;;;22.27;100.00;96651.84;5074179;28;20188;-86
2021/06/20 09:20:57;;;;;;;2.00;1.90;;;;;;;21.95;100.00;96664.50;5074222;28;20201;-86
2021/06/20 09:23:24;;;;;;;2.03;1.93;;;;;;;21.91;100.00;96674.84;5074314;28;20197;-86
2021/06/20 09:25:57;;;;;;;1.83;1.60;;;;;;;22.06;100.00;96703.94;5074036;28;20225;-85
2021/06/20 09:28:34;;;;;;;2.77;1.93;;;;;;;22.18;100.00;96693.38;5074248;28;20554;-86
2021/06/20 09:31:04;;;;;;;1.80;1.70;;;;;;;21.95;100.00;96633.22;5074104;28;20280;-86
2021/06/20 09:33:34;;;;;;;2.37;2.00;;;;;;;22.40;100.00;96634.81;5073660;28;20197;-86
2021/06/20 09:36:02;;;;;;;1.80;1.70;;;;;;;22.87;100.00;96637.75;5074245;28;20292;-86
2021/06/20 09:38:31;;;;;;;4.17;1.90;;;;;;;22.69;100.00;96625.22;5073673;28;20195;-86
2021/06/20 09:41:03;;;;;;;2.40;1.90;;;;;;;22.58;100.00;96634.78;5073923;28;20232;-85
2021/06/20 09:43:32;;;;;;;2.30;2.10;;;;;;;22.56;100.00;96658.31;5073709;28;20304;-86
2021/06/20 09:46:01;;;;;;;1.80;1.70;;;;;;;22.51;100.00;96652.81;5073783;28;20294;-86
2021/06/20 09:48:30;;;;;;;2.40;2.20;;;;;;;22.27;100.00;96620.56;5073265;28;20232;-86
2021/06/20 09:51:01;;;;;;;1.90;1.80;;;;;;;22.20;100.00;96605.59;5073682;28;20204;-86
2021/06/20 09:53:36;;;;;;;3.13;1.80;;;;;;;22.04;100.00;96612.34;5073643;28;20189;-86
2021/06/20 09:56:18;;;;;;;2.93;2.10;;;;;;;22.07;100.00;96626.09;5073518;28;20185;-86
2021/06/20 09:58:47;;;;;;;2.27;2.10;;;;;;;22.18;100.00;96632.59;5073251;28;20217;-86
2021/06/20 10:01:15;;;;;;;1.87;1.77;;;;;;;22.22;100.00;96638.31;5073317;28;20662;-86
2021/06/20 10:03:44;;;;;;;2.40;2.20;;;;;;;22.30;100.00;96662.13;5073235;28;20200;-86
2021/06/20 10:06:14;;;;;;;2.37;2.10;;;;;;;22.27;100.00;96658.06;5073028;28;20724;-86
2021/06/20 10:08:44;;;;;;;1.63;1.53;;;;;;;22.57;100.00;96672.53;5073369;28;20200;-86
2021/06/20 10:11:12;;;;;;;3.97;1.70;;;;;;;22.81;100.00;96567.09;5073423;28;20250;-86
2021/06/20 10:13:40;;;;;;;1.90;1.73;;;;;;;23.17;100.00;96584.09;5072879;28;20205;-85
2021/06/20 10:16:19;;;;;;;2.03;1.70;;;;;;;23.25;100.00;96575.75;5073168;28;20204;-86
2021/06/20 10:18:52;;;;;;;1.97;1.77;;;;;;;23.65;100.00;96561.63;5072260;28;20539;-86
2021/06/20 10:21:34;;;;;;;1.77;1.67;;;;;;;23.67;100.00;96521.97;5073327;28;20273;-86
2021/06/20 10:24:13;;;;;;;2.63;1.67;;;;;;;23.54;100.00;96528.41;5072733;28;20225;-86
2021/06/20 10:26:45;;;;;;;1.53;1.43;;;;;;;23.12;100.00;96460.66;5072603;28;20313;-85
2021/06/20 10:29:21;;;;;;;1.60;1.50;;;;;;;23.01;100.00;96449.72;5072688;28;20189;-85
2021/06/20 10:31:50;;;;;;;1.30;1.30;;;;;;;23.34;100.00;96469.75;5072847;28;20185;-86
2021/06/20 10:34:19;;;;;;;1.47;1.43;;;;;;;23.43;100.00;96449.56;5072494;28;20251;-86
2021/06/20 10:36:50;;;;;;;1.70;1.60;;;;;;;23.98;100.00;96452.88;5072710;28;20250;-86
2021/06/20 10:39:17;;;;;;;2.30;1.57;;;;;;;23.94;100.00;96421.13;5072246;28;20189;-85
2021/06/20 10:41:45;;;;;;;1.30;1.30;;;;;;;24.01;100.00;96393.31;5072572;28;20197;-85
2021/06/20 10:44:12;;;;;;;1.60;1.50;;;;;;;23.85;100.00;96368.88;5072442;28;20200;-85
2021/06/20 10:46:41;;;;;;;1.47;1.37;;;;;;;23.65;100.00;96379.19;5072634;28;20225;-86
2021/06/20 10:49:17;;;;;;;1.30;1.20;;;;;;;23.73;100.00;96392.28;5071824;28;20282;-86
2021/06/20 10:51:45;;;;;;;2.10;1.37;;;;;;;23.38;100.00;96433.38;5072461;28;20283;-86
2021/06/20 10:54:28;;;;;;;1.40;1.40;;;;;;;23.45;100.00;96435.91;5072299;28;20744;-86
2021/06/20 10:57:00;;;;;;;1.47;1.37;;;;;;;23.36;100.00;96442.69;5072507;28;20197;-85
2021/06/20 10:59:28;;;;;;;1.30;1.20;;;;;;;24.08;100.00;96467.28;5072409;28;20632;-85
2021/06/20 11:01:56;;;;;;;1.20;1.20;;;;;;;24.13;100.00;96375.28;5072330;28;20200;-85
2021/06/20 11:04:23;;;;;;;1.20;1.10;;;;;;;24.50;100.00;96402.53;5072177;28;20236;-86
2021/06/20 11:06:55;;;;;;;1.30;1.30;;;;;;;24.58;100.00;96347.56;5072278;28;20254;-85
2021/06/20 11:09:24;;;;;;;1.73;1.27;;;;;;;24.31;100.00;96320.50;5071816;28;20240;-86
2021/06/20 11:11:53;;;;;;;1.20;1.20;;;;;;;23.99;100.00;96286.16;5072129;28;20201;-86
2021/06/20 11:14:21;;;;;;;2.10;1.37;;;;;;;23.80;100.00;96352.69;5071927;28;20205;-85
2021/06/20 11:16:50;;;;;;;2.00;1.50;;;;;;;23.63;100.00;96443.00;5071983;28;20236;-85
2021/06/20 11:19:22;;;;;;;1.70;1.60;;;;;;;23.59;100.00;96538.41;5072246;28;20614;-86
2021/06/20 11:21:53;;;;;;;1.70;1.60;;;;;;;23.62;100.00;96565.63;5072053;28;20642;-86
2021/06/20 11:24:24;;;;;;;1.63;1.53;;;;;;;23.59;100.00;96579.50;5071844;28;20185;-86
2021/06/20 11:26:56;;;;;;;2.17;1.97;;;;;;;23.83;100.00;96595.59;5072346;28;20235;-87
2021/06/20 11:29:24;;;;;;;2.03;1.90;;;;;;;24.37;100.00;96599.72;5071247;28;20567;-86
2021/06/20 11:31:53;;;;;;;2.00;1.90;;;;;;;24.66;100.00;96606.00;5072228;28;20280;-86